createdAt,value
2016-05-21T00:00:07.639Z,0
2016-05-21T00:01:07.609Z,0
2016-05-21T00:02:07.909Z,0
2016-05-21T00:03:08.053Z,0
2016-05-21T00:04:07.633Z,0
2016-05-21T00:05:21.574Z,0
2016-05-21T00:06:07.654Z,0
2016-05-21T00:07:07.908Z,0
2016-05-21T00:08:07.503Z,0
2016-05-21T00:09:07.913Z,0
2016-05-21T00:10:07.665Z,0
2016-05-21T00:11:07.961Z,0
2016-05-21T00:12:07.761Z,0
2016-05-21T00:13:07.764Z,0
2016-05-21T00:14:07.797Z,0
2016-05-21T00:15:08.035Z,0
2016-05-21T00:16:07.999Z,0
2016-05-21T00:17:07.640Z,0
2016-05-21T00:19:08.290Z,0
2016-05-21T00:20:07.383Z,0
2016-05-21T00:21:07.876Z,0
2016-05-21T00:22:07.882Z,0
2016-05-21T00:23:07.857Z,0
2016-05-21T00:24:07.892Z,0
2016-05-21T00:25:07.773Z,0
2016-05-21T00:26:08.734Z,0
2016-05-21T00:27:07.890Z,0
2016-05-21T00:28:07.894Z,0
2016-05-21T00:29:08.100Z,0
2016-05-21T00:30:07.760Z,0
2016-05-21T00:31:07.966Z,0
2016-05-21T00:32:07.923Z,0
2016-05-21T00:33:08.004Z,0
2016-05-21T00:34:08.400Z,0
2016-05-21T00:35:07.978Z,0
2016-05-21T00:36:07.809Z,0
2016-05-21T00:37:07.998Z,0
2016-05-21T00:38:08.376Z,0
2016-05-21T00:39:07.973Z,0
2016-05-21T00:40:07.991Z,0
2016-05-21T00:42:08.247Z,0
2016-05-21T00:43:07.686Z,0
2016-05-21T00:44:08.033Z,0
2016-05-21T00:45:08.019Z,0
2016-05-21T00:46:08.039Z,0
2016-05-21T00:47:08.292Z,0
2016-05-21T00:48:08.060Z,0
2016-05-21T00:49:08.094Z,0
2016-05-21T00:50:08.143Z,0
2016-05-21T00:51:07.771Z,0
2016-05-21T00:52:08.289Z,0
2016-05-21T00:53:08.307Z,0
2016-05-21T00:54:22.031Z,0
2016-05-21T00:55:08.296Z,0
2016-05-21T00:56:09.021Z,0
2016-05-21T00:57:08.162Z,0
2016-05-21T00:58:22.276Z,0
2016-05-21T01:00:22.188Z,0
2016-05-21T01:01:08.204Z,0
2016-05-21T01:02:08.176Z,0
2016-05-21T01:03:08.256Z,0
2016-05-21T01:04:22.215Z,0
2016-05-21T01:05:22.498Z,0
2016-05-21T01:06:08.186Z,0
2016-05-21T01:07:08.579Z,0
2016-05-21T01:08:08.410Z,0
2016-05-21T01:09:08.116Z,0
2016-05-21T01:10:07.712Z,0
2016-05-21T01:11:08.636Z,0
2016-05-21T01:12:08.249Z,0
2016-05-21T01:13:08.189Z,0
2016-05-21T01:14:08.269Z,0
2016-05-21T01:15:08.226Z,0
2016-05-21T01:16:08.728Z,0
2016-05-21T01:17:08.263Z,0
2016-05-21T01:18:08.281Z,0
2016-05-21T01:19:08.096Z,0
2016-05-21T01:21:08.242Z,0
2016-05-21T01:22:08.479Z,0
2016-05-21T01:23:08.654Z,0
2016-05-21T01:24:08.703Z,0
2016-05-21T01:25:08.330Z,0
2016-05-21T01:26:08.521Z,0
2016-05-21T01:27:08.164Z,0
2016-05-21T01:29:08.498Z,0
2016-05-21T01:30:08.516Z,0
2016-05-21T01:31:08.379Z,0
2016-05-21T01:32:08.443Z,0
2016-05-21T01:33:08.321Z,0
2016-05-21T01:34:22.264Z,0
2016-05-21T01:35:08.748Z,0
2016-05-21T01:36:21.832Z,0
2016-05-21T01:37:08.567Z,0
2016-05-21T01:38:08.865Z,0
2016-05-21T01:39:08.790Z,0
2016-05-21T01:40:08.637Z,0
2016-05-21T01:41:08.467Z,0
2016-05-21T01:42:08.408Z,0
2016-05-21T01:43:08.395Z,0
2016-05-21T01:44:08.445Z,0
2016-05-21T01:45:08.620Z,0
2016-05-21T01:46:08.622Z,0
2016-05-21T01:47:08.453Z,0
2016-05-21T01:48:08.439Z,0
2016-05-21T01:49:09.099Z,0
2016-05-21T01:50:08.555Z,0
2016-05-21T01:51:08.291Z,0
2016-05-21T01:52:08.872Z,0
2016-05-21T01:53:08.874Z,0
2016-05-21T01:54:08.674Z,0
2016-05-21T01:55:08.505Z,0
2016-05-21T01:56:22.417Z,0
2016-05-21T01:57:08.542Z,0
2016-05-21T01:58:08.716Z,0
2016-05-21T01:59:08.547Z,0
2016-05-21T02:00:08.363Z,0
2016-05-21T02:01:08.537Z,0
2016-05-21T02:02:08.540Z,0
2016-05-21T02:03:08.761Z,0
2016-05-21T02:04:08.607Z,0
2016-05-21T02:05:08.735Z,0
2016-05-21T02:06:08.534Z,0
2016-05-21T02:07:08.459Z,0
2016-05-21T02:09:08.558Z,0
2016-05-21T02:10:08.623Z,0
2016-05-21T02:11:08.314Z,0
2016-05-21T02:12:08.973Z,0
2016-05-21T02:13:08.773Z,0
2016-05-21T02:14:08.666Z,0
2016-05-21T02:15:08.465Z,0
2016-05-21T02:16:08.859Z,0
2016-05-21T02:17:08.674Z,0
2016-05-21T02:18:08.723Z,0
2016-05-21T02:19:08.850Z,0
2016-05-21T02:20:08.088Z,0
2016-05-21T02:21:08.122Z,0
2016-05-21T02:22:08.656Z,0
2016-05-21T02:23:08.861Z,0
2016-05-21T02:24:08.677Z,0
2016-05-21T02:25:08.727Z,0
2016-05-21T02:26:08.683Z,0
2016-05-21T02:27:08.685Z,0
2016-05-21T02:28:09.109Z,0
2016-05-21T02:29:08.910Z,0
2016-05-21T02:30:08.599Z,0
2016-05-21T02:31:09.118Z,0
2016-05-21T02:32:08.715Z,0
2016-05-21T02:33:08.920Z,0
2016-05-21T02:34:08.907Z,0
2016-05-21T02:35:08.940Z,0
2016-05-21T02:36:09.210Z,0
2016-05-21T02:37:08.477Z,0
2016-05-21T02:39:08.937Z,0
2016-05-21T02:40:08.845Z,0
2016-05-21T02:41:09.660Z,0
2016-05-21T02:42:08.912Z,0
2016-05-21T02:43:08.869Z,0
2016-05-21T02:44:09.200Z,0
2016-05-21T02:45:09.030Z,0
2016-05-21T02:46:08.548Z,0
2016-05-21T02:47:09.035Z,0
2016-05-21T02:48:08.803Z,0
2016-05-21T02:49:08.806Z,0
2016-05-21T02:50:08.481Z,0
2016-05-21T02:51:08.844Z,0
2016-05-21T02:52:09.096Z,0
2016-05-21T02:53:08.880Z,0
2016-05-21T02:54:09.039Z,0
2016-05-21T02:55:09.401Z,0
2016-05-21T02:56:23.016Z,0
2016-05-21T02:57:08.844Z,0
2016-05-21T02:58:09.159Z,0
2016-05-21T02:59:09.255Z,0
2016-05-21T03:00:09.133Z,0
2016-05-21T03:01:09.089Z,0
2016-05-21T03:02:08.888Z,5
2016-05-21T03:03:09.093Z,5
2016-05-21T03:04:08.910Z,5
2016-05-21T03:05:09.115Z,5
2016-05-21T03:06:22.995Z,5
2016-05-21T03:07:09.136Z,5
2016-05-21T03:08:08.732Z,5
2016-05-21T03:09:08.985Z,5
2016-05-21T03:10:09.145Z,5
2016-05-21T03:11:09.584Z,5
2016-05-21T03:12:08.900Z,10
2016-05-21T03:13:08.965Z,10
2016-05-21T03:14:08.920Z,10
2016-05-21T03:15:08.642Z,10
2016-05-21T03:16:09.192Z,10
2016-05-21T03:17:09.163Z,10
2016-05-21T03:18:09.400Z,15
2016-05-21T03:19:09.028Z,15
2016-05-21T03:20:08.983Z,15
2016-05-21T03:21:08.956Z,15
2016-05-21T03:22:08.974Z,15
2016-05-21T03:23:08.805Z,15
2016-05-21T03:24:09.401Z,20
2016-05-21T03:25:08.528Z,20
2016-05-21T03:26:09.563Z,20
2016-05-21T03:27:09.268Z,20
2016-05-21T03:28:09.053Z,20
2016-05-21T03:29:23.120Z,20
2016-05-21T03:30:09.885Z,20
2016-05-21T03:31:23.516Z,20
2016-05-21T03:32:08.735Z,20
2016-05-21T03:33:09.518Z,20
2016-05-21T03:34:09.052Z,20
2016-05-21T03:35:09.462Z,20
2016-05-21T03:36:09.105Z,20
2016-05-21T03:37:08.920Z,20
2016-05-21T03:38:09.126Z,20
2016-05-21T03:39:09.145Z,20
2016-05-21T03:40:09.537Z,20
2016-05-21T03:41:09.337Z,20
2016-05-21T03:42:09.137Z,20
2016-05-21T03:43:09.389Z,20
2016-05-21T03:44:09.392Z,25
2016-05-21T03:45:09.161Z,25
2016-05-21T03:46:09.163Z,25
2016-05-21T03:48:23.453Z,25
2016-05-21T03:49:09.437Z,25
2016-05-21T03:50:08.924Z,25
2016-05-21T03:51:09.130Z,30
2016-05-21T03:52:08.164Z,30
2016-05-21T03:53:23.481Z,30
2016-05-21T03:54:09.153Z,30
2016-05-21T03:55:09.297Z,30
2016-05-21T03:56:09.783Z,35
2016-05-21T03:57:09.380Z,35
2016-05-21T03:58:10.055Z,40
2016-05-21T03:59:08.480Z,40
2016-05-21T04:00:09.419Z,40
2016-05-21T04:01:09.110Z,45
2016-05-21T04:02:09.612Z,45
2016-05-21T04:03:08.568Z,50
2016-05-21T04:04:23.183Z,50
2016-05-21T04:05:23.310Z,50
2016-05-21T04:06:09.248Z,55
2016-05-21T04:07:09.282Z,55
2016-05-21T04:08:09.254Z,55
2016-05-21T04:09:09.115Z,60
2016-05-21T04:10:09.306Z,60
2016-05-21T04:11:09.277Z,65
2016-05-21T04:12:23.407Z,70
2016-05-21T04:13:08.782Z,75
2016-05-21T04:14:09.301Z,80
2016-05-21T04:15:09.054Z,80
2016-05-21T04:16:09.510Z,80
2016-05-21T04:17:09.309Z,85
2016-05-21T04:18:09.531Z,90
2016-05-21T04:19:09.361Z,95
2016-05-21T04:20:09.333Z,100
2016-05-21T04:22:09.214Z,110
2016-05-21T04:24:09.687Z,120
2016-05-21T04:25:09.564Z,125
2016-05-21T04:26:10.100Z,130
2016-05-21T04:27:09.382Z,135
2016-05-21T04:28:09.604Z,135
2016-05-21T04:29:23.469Z,135
2016-05-21T04:30:09.203Z,140
2016-05-21T04:31:08.972Z,140
2016-05-21T04:32:09.458Z,145
2016-05-21T04:33:09.602Z,145
2016-05-21T04:34:09.104Z,150
2016-05-21T04:35:09.482Z,150
2016-05-21T04:36:09.266Z,155
2016-05-21T04:37:09.456Z,155
2016-05-21T04:38:09.460Z,160
2016-05-21T04:39:09.399Z,165
2016-05-21T04:40:09.480Z,170
2016-05-21T04:41:10.718Z,175
2016-05-21T04:42:09.282Z,175
2016-05-21T04:43:09.660Z,175
2016-05-21T04:44:09.506Z,175
2016-05-21T04:45:09.306Z,175
2016-05-21T04:46:09.762Z,180
2016-05-21T04:47:09.531Z,180
2016-05-21T04:48:09.517Z,185
2016-05-21T04:49:09.754Z,180
2016-05-21T04:50:09.367Z,175
2016-05-21T04:51:09.401Z,170
2016-05-21T04:52:23.609Z,170
2016-05-21T04:53:09.781Z,170
2016-05-21T04:54:09.392Z,165
2016-05-21T04:55:10.005Z,165
2016-05-21T04:56:09.680Z,160
2016-05-21T04:57:09.636Z,160
2016-05-21T04:58:09.825Z,155
2016-05-21T04:59:09.999Z,160
2016-05-21T05:01:10.068Z,150
2016-05-21T05:02:10.071Z,150
2016-05-21T05:03:09.620Z,150
2016-05-21T05:04:24.110Z,155
2016-05-21T05:05:23.910Z,160
2016-05-21T05:06:09.472Z,160
2016-05-21T05:07:10.084Z,165
2016-05-21T05:08:09.180Z,165
2016-05-21T05:09:09.698Z,175
2016-05-21T05:10:09.702Z,185
2016-05-21T05:11:10.501Z,205
2016-05-21T05:12:09.910Z,230
2016-05-21T05:13:09.726Z,255
2016-05-21T05:14:09.743Z,280
2016-05-21T05:15:09.434Z,285
2016-05-21T05:16:24.205Z,290
2016-05-21T05:17:10.674Z,290
2016-05-21T05:18:10.176Z,285
2016-05-21T05:19:09.789Z,285
2016-05-21T05:20:09.587Z,295
2016-05-21T05:21:23.875Z,300
2016-05-21T05:22:10.015Z,305
2016-05-21T05:23:09.595Z,310
2016-05-21T05:24:10.411Z,320
2016-05-21T05:25:10.070Z,325
2016-05-21T05:26:09.728Z,325
2016-05-21T05:27:10.028Z,335
2016-05-21T05:28:10.219Z,335
2016-05-21T05:29:24.084Z,340
2016-05-21T05:30:10.053Z,340
2016-05-21T05:31:09.649Z,350
2016-05-21T05:32:09.916Z,350
2016-05-21T05:33:10.107Z,350
2016-05-21T05:34:10.500Z,350
2016-05-21T05:35:10.300Z,335
2016-05-21T05:36:23.838Z,330
2016-05-21T05:37:09.697Z,320
2016-05-21T05:38:09.917Z,310
2016-05-21T05:39:10.092Z,310
2016-05-21T05:40:09.595Z,310
2016-05-21T05:41:10.332Z,305
2016-05-21T05:42:09.771Z,300
2016-05-21T05:43:10.103Z,295
2016-05-21T05:44:09.918Z,295
2016-05-21T05:45:09.921Z,305
2016-05-21T05:46:10.064Z,310
2016-05-21T05:48:10.194Z,335
2016-05-21T05:49:10.056Z,350
2016-05-21T05:50:10.168Z,365
2016-05-21T05:51:10.203Z,385
2016-05-21T05:52:10.048Z,395
2016-05-21T05:53:09.505Z,400
2016-05-21T05:54:10.054Z,400
2016-05-21T05:55:10.041Z,400
2016-05-21T05:56:10.356Z,410
2016-05-21T05:57:10.250Z,410
2016-05-21T05:58:10.034Z,410
2016-05-21T05:59:10.317Z,410
2016-05-21T06:00:10.461Z,405
2016-05-21T06:01:09.916Z,410
2016-05-21T06:02:10.294Z,415
2016-05-21T06:03:09.938Z,420
2016-05-21T06:04:10.160Z,420
2016-05-21T06:05:10.553Z,410
2016-05-21T06:06:10.352Z,395
2016-05-21T06:07:10.324Z,385
2016-05-21T06:08:12.904Z,380
2016-05-21T06:09:10.219Z,375
2016-05-21T06:10:10.269Z,380
2016-05-21T06:11:10.960Z,380
2016-05-21T06:12:24.527Z,385
2016-05-21T06:13:10.246Z,390
2016-05-21T06:14:24.329Z,395
2016-05-21T06:15:10.845Z,395
2016-05-21T06:16:10.301Z,395
2016-05-21T06:17:38.462Z,395
2016-05-21T06:18:24.184Z,390
2016-05-21T06:19:10.340Z,385
2016-05-21T06:20:24.361Z,385
2016-05-21T06:21:09.470Z,390
2016-05-21T06:22:10.208Z,390
2016-05-21T06:23:10.367Z,395
2016-05-21T06:24:10.214Z,405
2016-05-21T06:25:09.856Z,415
2016-05-21T06:26:11.031Z,430
2016-05-21T06:27:10.315Z,440
2016-05-21T06:28:10.005Z,455
2016-05-21T06:29:10.383Z,460
2016-05-21T06:30:10.386Z,460
2016-05-21T06:31:10.810Z,460
2016-05-21T06:32:10.313Z,460
2016-05-21T06:33:38.583Z,460
2016-05-21T06:34:10.443Z,460
2016-05-21T06:35:38.792Z,470
2016-05-21T06:36:10.636Z,475
2016-05-21T06:37:10.311Z,480
2016-05-21T06:38:10.344Z,480
2016-05-21T06:39:24.569Z,485
2016-05-21T06:40:10.741Z,485
2016-05-21T06:41:10.947Z,495
2016-05-21T06:42:10.557Z,505
2016-05-21T06:43:10.530Z,510
2016-05-21T06:44:10.438Z,510
2016-05-21T06:45:11.285Z,505
2016-05-21T06:46:10.553Z,505
2016-05-21T06:47:10.275Z,500
2016-05-21T06:48:10.418Z,490
2016-05-21T06:49:24.721Z,470
2016-05-21T06:50:24.973Z,460
2016-05-21T06:51:10.614Z,460
2016-05-21T06:52:10.007Z,455
2016-05-21T06:53:10.650Z,455
2016-05-21T06:54:10.465Z,460
2016-05-21T06:55:10.547Z,465
2016-05-21T06:56:12.112Z,470
2016-05-21T06:57:10.473Z,475
2016-05-21T06:58:10.914Z,480
2016-05-21T06:59:10.714Z,490
2016-05-21T07:00:10.544Z,500
2016-05-21T07:01:11.188Z,505
2016-05-21T07:02:10.769Z,505
2016-05-21T07:03:10.724Z,490
2016-05-21T07:04:10.805Z,475
2016-05-21T07:05:11.011Z,460
2016-05-21T07:06:10.780Z,445
2016-05-21T07:07:24.910Z,425
2016-05-21T07:08:10.675Z,415
2016-05-21T07:09:11.038Z,410
2016-05-21T07:10:10.883Z,400
2016-05-21T07:11:11.370Z,390
2016-05-21T07:12:11.436Z,380
2016-05-21T07:13:10.907Z,380
2016-05-21T07:14:10.613Z,380
2016-05-21T07:15:10.804Z,385
2016-05-21T07:16:10.915Z,385
2016-05-21T07:17:25.093Z,390
2016-05-21T07:18:10.921Z,395
2016-05-21T07:19:10.487Z,405
2016-05-21T07:20:11.145Z,415
2016-05-21T07:21:13.992Z,435
2016-05-21T07:22:10.870Z,435
2016-05-21T07:23:11.012Z,440
2016-05-21T07:24:25.111Z,450
2016-05-21T07:25:11.189Z,455
2016-05-21T07:26:11.427Z,475
2016-05-21T07:27:10.914Z,495
2016-05-21T07:28:10.931Z,505
2016-05-21T07:29:11.076Z,515
2016-05-21T07:30:25.190Z,520
2016-05-21T07:31:10.956Z,530
2016-05-21T07:32:10.803Z,535
2016-05-21T07:33:11.164Z,550
2016-05-21T07:34:11.183Z,565
2016-05-21T07:35:11.372Z,580
2016-05-21T07:36:11.157Z,595
2016-05-21T07:37:11.394Z,605
2016-05-21T07:38:11.255Z,605
2016-05-21T07:39:11.415Z,610
2016-05-21T07:40:11.043Z,605
2016-05-21T07:41:25.298Z,605
2016-05-21T07:42:11.251Z,605
2016-05-21T07:43:11.504Z,605
2016-05-21T07:44:10.929Z,605
2016-05-21T07:45:11.665Z,610
2016-05-21T07:46:11.262Z,610
2016-05-21T07:47:11.296Z,620
2016-05-21T07:48:25.238Z,630
2016-05-21T07:49:11.598Z,635
2016-05-21T07:50:11.554Z,650
2016-05-21T07:51:11.979Z,660
2016-05-21T07:52:11.387Z,670
2016-05-21T07:53:11.420Z,680
2016-05-21T07:54:11.565Z,690
2016-05-21T07:55:11.426Z,700
2016-05-21T07:56:11.304Z,705
2016-05-21T07:57:11.401Z,700
2016-05-21T07:58:25.528Z,705
2016-05-21T07:59:11.672Z,705
2016-05-21T08:00:11.315Z,705
2016-05-21T08:01:11.584Z,705
2016-05-21T08:02:11.570Z,700
2016-05-21T08:03:25.761Z,705
2016-05-21T08:04:25.622Z,720
2016-05-21T08:05:25.860Z,730
2016-05-21T08:06:11.753Z,730
2016-05-21T08:07:11.569Z,740
2016-05-21T08:08:11.586Z,745
2016-05-21T08:09:11.824Z,745
2016-05-21T08:10:11.608Z,745
2016-05-21T08:11:25.751Z,735
2016-05-21T08:12:11.894Z,720
2016-05-21T08:13:26.350Z,725
2016-05-21T08:14:11.899Z,710
2016-05-21T08:15:11.528Z,685
2016-05-21T08:16:11.701Z,670
2016-05-21T08:17:12.033Z,640
2016-05-21T08:18:11.535Z,610
2016-05-21T08:19:11.835Z,575
2016-05-21T08:20:11.822Z,555
2016-05-21T08:21:11.778Z,560
2016-05-21T08:22:11.827Z,520
2016-05-21T08:23:26.330Z,755
2016-05-21T08:24:12.036Z,590
2016-05-21T08:25:11.898Z,555
2016-05-21T08:26:11.792Z,720
2016-05-21T08:27:12.106Z,625
2016-05-21T08:29:11.893Z,935
2016-05-21T08:30:11.740Z,1195
2016-05-21T08:31:12.133Z,1105
2016-05-21T08:32:11.933Z,1015
2016-05-21T08:33:12.153Z,955
2016-05-21T08:34:11.953Z,960
2016-05-21T08:35:12.175Z,740
2016-05-21T08:36:12.240Z,745
2016-05-21T08:37:12.025Z,1110
2016-05-21T08:38:11.699Z,905
2016-05-21T08:39:12.077Z,975
2016-05-21T08:40:12.063Z,755
2016-05-21T08:41:12.082Z,760
2016-05-21T08:42:12.006Z,735
2016-05-21T08:43:12.087Z,720
2016-05-21T08:44:12.183Z,710
2016-05-21T08:45:11.811Z,680
2016-05-21T08:46:12.235Z,645
2016-05-21T08:47:12.363Z,610
2016-05-21T08:48:12.210Z,585
2016-05-21T08:49:12.275Z,565
2016-05-21T08:51:12.640Z,545
2016-05-21T08:52:12.079Z,540
2016-05-21T08:53:12.676Z,535
2016-05-21T08:54:12.320Z,540
2016-05-21T08:55:12.291Z,555
2016-05-21T08:56:12.340Z,540
2016-05-21T08:57:13.250Z,495
2016-05-21T08:59:12.474Z,485
2016-05-21T09:00:12.789Z,470
2016-05-21T09:01:12.573Z,455
2016-05-21T09:02:12.450Z,480
2016-05-21T09:03:12.173Z,535
2016-05-21T09:04:13.269Z,580
2016-05-21T09:05:12.489Z,645
2016-05-21T09:06:12.321Z,675
2016-05-21T09:07:12.480Z,655
2016-05-21T09:08:12.233Z,635
2016-05-21T09:09:12.548Z,615
2016-05-21T09:10:12.379Z,585
2016-05-21T09:11:13.178Z,565
2016-05-21T09:12:12.572Z,550
2016-05-21T09:13:12.574Z,535
2016-05-21T09:14:12.827Z,520
2016-05-21T09:15:12.892Z,510
2016-05-21T09:16:12.644Z,500
2016-05-21T09:17:12.710Z,485
2016-05-21T09:18:12.672Z,475
2016-05-21T09:19:12.556Z,475
2016-05-21T09:20:12.751Z,510
2016-05-21T09:21:13.009Z,580
2016-05-21T09:22:12.799Z,670
2016-05-21T09:23:13.042Z,725
2016-05-21T09:24:13.069Z,725
2016-05-21T09:25:12.892Z,745
2016-05-21T09:26:12.902Z,735
2016-05-21T09:27:27.225Z,710
2016-05-21T09:29:12.500Z,675
2016-05-21T09:30:13.850Z,625
2016-05-21T09:31:13.027Z,575
2016-05-21T09:32:13.002Z,490
2016-05-21T09:33:12.865Z,410
2016-05-21T09:34:13.055Z,365
2016-05-21T09:35:27.576Z,345
2016-05-21T09:36:13.126Z,350
2016-05-21T09:37:15.567Z,370
2016-05-21T09:38:13.149Z,400
2016-05-21T09:39:27.246Z,440
2016-05-21T09:41:13.954Z,490
2016-05-21T09:42:14.162Z,495
2016-05-21T09:43:13.258Z,475
2016-05-21T09:44:13.620Z,450
2016-05-21T09:45:27.762Z,440
2016-05-21T09:46:13.797Z,415
2016-05-21T09:47:14.675Z,390
2016-05-21T09:48:13.865Z,390
2016-05-21T09:49:14.087Z,400
2016-05-21T09:50:14.166Z,415
2016-05-21T09:51:14.139Z,415
2016-05-21T09:52:14.391Z,410
2016-05-21T09:53:14.425Z,395
2016-05-21T09:54:13.880Z,385
2016-05-21T09:55:28.039Z,380
2016-05-21T09:56:13.964Z,375
2016-05-21T09:57:14.669Z,380
2016-05-21T09:58:14.407Z,405
2016-05-21T09:59:15.410Z,440
2016-05-21T10:00:13.944Z,435
2016-05-21T10:01:14.149Z,425
2016-05-21T10:02:14.761Z,1335
2016-05-21T10:03:14.530Z,1650
2016-05-21T10:04:14.830Z,1680
2016-05-21T10:05:15.082Z,1465
2016-05-21T10:06:15.085Z,1635
2016-05-21T10:07:14.604Z,1330
2016-05-21T10:08:15.621Z,1275
2016-05-21T10:09:14.890Z,995
2016-05-21T10:10:15.205Z,780
2016-05-21T10:11:14.910Z,640
2016-05-21T10:12:14.992Z,570
2016-05-21T10:13:15.166Z,580
2016-05-21T10:14:15.075Z,595
2016-05-21T10:15:15.812Z,580
2016-05-21T10:16:14.455Z,555
2016-05-21T10:17:15.115Z,540
2016-05-21T10:19:14.853Z,585
2016-05-21T10:20:14.184Z,560
2016-05-21T10:21:14.798Z,505
2016-05-21T10:22:14.972Z,480
2016-05-21T10:23:14.678Z,465
2016-05-21T10:24:28.196Z,450
2016-05-21T10:25:14.058Z,445
2016-05-21T10:26:14.482Z,430
2016-05-21T10:27:14.891Z,430
2016-05-21T10:28:13.941Z,415
2016-05-21T10:29:14.084Z,425
2016-05-21T10:30:13.930Z,420
2016-05-21T10:31:13.761Z,385
2016-05-21T10:32:14.186Z,390
2016-05-21T10:33:14.189Z,385
2016-05-21T10:34:13.972Z,395
2016-05-21T10:35:13.835Z,410
2016-05-21T10:36:14.213Z,420
2016-05-21T10:37:14.419Z,435
2016-05-21T10:38:14.265Z,450
2016-05-21T10:39:13.893Z,465
2016-05-21T10:40:14.489Z,500
2016-05-21T10:41:14.554Z,555
2016-05-21T10:42:28.025Z,685
2016-05-21T10:43:14.200Z,655
2016-05-21T10:44:28.078Z,640
2016-05-21T10:45:14.159Z,630
2016-05-21T10:46:14.473Z,605
2016-05-21T10:47:14.039Z,585
2016-05-21T10:48:14.182Z,560
2016-05-21T10:49:28.138Z,550
2016-05-21T10:50:14.515Z,555
2016-05-21T10:51:14.222Z,570
2016-05-21T10:52:14.271Z,585
2016-05-21T10:53:14.509Z,610
2016-05-21T10:54:28.355Z,530
2016-05-21T10:55:14.389Z,550
2016-05-21T10:56:14.532Z,560
2016-05-21T10:57:14.567Z,505
2016-05-21T10:58:28.630Z,455
2016-05-21T10:59:28.712Z,420
2016-05-21T11:00:14.464Z,425
2016-05-21T11:01:14.655Z,425
2016-05-21T11:02:14.860Z,430
2016-05-21T11:03:14.270Z,435
2016-05-21T11:04:15.116Z,435
2016-05-21T11:05:14.946Z,440
2016-05-21T11:06:14.543Z,445
2016-05-21T11:07:14.530Z,485
2016-05-21T11:08:14.611Z,520
2016-05-21T11:09:14.816Z,570
2016-05-21T11:10:29.116Z,665
2016-05-21T11:11:14.494Z,680
2016-05-21T11:12:15.200Z,690
2016-05-21T11:13:14.452Z,690
2016-05-21T11:14:14.487Z,695
2016-05-21T11:16:14.835Z,705
2016-05-21T11:17:14.807Z,695
2016-05-21T11:18:14.529Z,735
2016-05-21T11:19:14.234Z,730
2016-05-21T11:20:15.003Z,700
2016-05-21T11:21:29.412Z,650
2016-05-21T11:22:14.601Z,650
2016-05-21T11:23:14.948Z,550
2016-05-21T11:24:14.982Z,505
2016-05-21T11:25:15.188Z,515
2016-05-21T11:26:15.066Z,455
2016-05-21T11:27:15.864Z,445
2016-05-21T11:28:15.165Z,495
2016-05-21T11:29:14.699Z,490
2016-05-21T11:30:15.092Z,455
2016-05-21T11:31:14.782Z,400
2016-05-21T11:32:14.644Z,405
2016-05-21T11:33:15.194Z,455
2016-05-21T11:34:15.384Z,470
2016-05-21T11:35:15.011Z,445
2016-05-21T11:36:15.296Z,380
2016-05-21T11:37:15.236Z,380
2016-05-21T11:38:14.395Z,405
2016-05-21T11:39:15.038Z,400
2016-05-21T11:40:14.557Z,395
2016-05-21T11:41:14.809Z,400
2016-05-21T11:42:15.890Z,420
2016-05-21T11:43:15.345Z,445
2016-05-21T11:45:15.742Z,515
2016-05-21T11:46:15.182Z,575
2016-05-21T11:47:15.185Z,600
2016-05-21T11:48:28.782Z,600
2016-05-21T11:49:15.206Z,630
2016-05-21T11:50:14.802Z,665
2016-05-21T11:51:15.258Z,695
2016-05-21T11:53:15.514Z,750
2016-05-21T11:54:15.312Z,725
2016-05-21T11:55:15.425Z,725
2016-05-21T11:56:29.772Z,740
2016-05-21T11:57:15.368Z,750
2016-05-21T11:58:29.667Z,765
2016-05-21T11:59:15.436Z,810
2016-05-21T12:00:15.610Z,795
2016-05-21T12:01:15.081Z,730
2016-05-21T12:02:15.318Z,650
2016-05-21T12:03:15.353Z,575
2016-05-21T12:04:15.684Z,570
2016-05-21T12:05:15.702Z,570
2016-05-21T12:06:15.704Z,570
2016-05-21T12:07:15.597Z,560
2016-05-21T12:08:15.585Z,550
2016-05-21T12:09:15.557Z,560
2016-05-21T12:10:15.763Z,585
2016-05-21T12:11:15.280Z,625
2016-05-21T12:12:15.471Z,600
2016-05-21T12:13:15.363Z,580
2016-05-21T12:14:15.648Z,610
2016-05-21T12:15:15.494Z,675
2016-05-21T12:16:15.716Z,675
2016-05-21T12:17:15.046Z,640
2016-05-21T12:18:15.706Z,600
2016-05-21T12:19:15.755Z,570
2016-05-21T18:31:19.215Z,35
2016-05-21T18:31:34.419Z,35
2016-05-21T18:32:34.067Z,30
2016-05-21T18:33:48.246Z,30
2016-05-21T18:34:34.204Z,30
2016-05-21T18:35:34.490Z,25
2016-05-21T18:36:34.618Z,25
2016-05-21T18:37:34.264Z,25
2016-05-21T18:38:34.207Z,20
2016-05-21T18:39:33.945Z,20
2016-05-21T18:40:34.088Z,20
2016-05-21T18:41:48.342Z,20
2016-05-21T18:42:34.486Z,15
2016-05-21T18:43:48.614Z,15
2016-05-21T18:44:34.336Z,15
2016-05-21T18:45:36.965Z,15
2016-05-21T18:46:35.498Z,10
2016-05-21T18:47:34.189Z,10
2016-05-21T18:48:33.692Z,10
2016-05-21T18:49:48.554Z,10
2016-05-21T18:50:34.681Z,10
2016-05-21T18:51:34.387Z,10
2016-05-21T18:52:34.437Z,5
2016-05-21T18:53:34.612Z,5
2016-05-21T18:54:34.395Z,5
2016-05-21T18:55:34.242Z,5
2016-05-21T18:56:34.245Z,5
2016-05-21T18:57:35.169Z,5
2016-05-21T18:58:34.392Z,5
2016-05-21T18:59:34.455Z,5
2016-05-21T19:00:34.317Z,5
2016-05-21T19:01:34.367Z,5
2016-05-21T19:03:34.357Z,0
2016-05-21T19:04:34.375Z,0
2016-05-21T19:05:34.378Z,0
2016-05-21T19:06:34.850Z,0
2016-05-21T19:07:34.274Z,0
2016-05-21T19:08:34.824Z,0
2016-05-21T19:09:34.092Z,0
2016-05-21T19:10:35.049Z,0
2016-05-21T19:11:37.472Z,0
2016-05-21T19:12:48.772Z,0
2016-05-21T19:14:34.465Z,0
2016-05-21T19:15:35.077Z,0
2016-05-21T19:16:34.721Z,0
2016-05-21T19:17:34.317Z,0
2016-05-21T19:18:34.413Z,0
2016-05-21T19:19:34.323Z,0
2016-05-21T19:20:34.715Z,0
2016-05-21T19:21:35.015Z,0
2016-05-21T19:22:34.752Z,0
2016-05-21T19:23:48.865Z,0
2016-05-21T19:24:34.773Z,0
2016-05-21T19:25:35.260Z,0
2016-05-21T19:26:35.012Z,0
2016-05-21T19:27:48.515Z,0
2016-05-21T19:28:34.284Z,0
2016-05-21T19:29:35.005Z,0
2016-05-21T19:30:36.711Z,0
2016-05-21T19:31:34.636Z,0
2016-05-21T19:32:33.998Z,0
2016-05-21T19:34:03.003Z,0
2016-05-21T19:34:34.550Z,0
2016-05-21T19:35:35.631Z,0
2016-05-21T19:36:34.555Z,0
2016-05-21T19:37:34.917Z,0
2016-05-21T19:38:34.982Z,0
2016-05-21T19:39:34.235Z,0
2016-05-21T19:40:35.035Z,0
2016-05-21T19:41:34.991Z,0
2016-05-21T19:42:35.446Z,0
2016-05-21T19:43:35.215Z,0
2016-05-21T19:44:49.890Z,0
2016-05-21T19:45:37.080Z,0
2016-05-21T19:46:35.223Z,0
2016-05-21T19:47:34.710Z,0
2016-05-21T19:48:35.071Z,0
2016-05-21T19:49:34.857Z,0
2016-05-21T19:50:34.765Z,0
2016-05-21T19:51:34.752Z,0
2016-05-21T19:52:34.879Z,0
2016-05-21T19:53:34.914Z,0
2016-05-21T19:54:34.869Z,0
2016-05-21T19:55:36.606Z,0
2016-05-21T19:56:34.906Z,0
2016-05-21T19:57:36.159Z,0
2016-05-21T19:58:49.067Z,0
2016-05-21T19:59:49.258Z,0
2016-05-21T20:00:35.948Z,0
2016-05-21T20:01:34.998Z,0
2016-05-21T20:02:35.376Z,0
2016-05-21T20:03:35.003Z,0
2016-05-21T20:04:35.459Z,0
2016-05-21T20:05:35.414Z,0
2016-05-21T20:06:35.667Z,0
2016-05-21T20:07:35.311Z,0
2016-05-21T20:08:35.486Z,0
2016-05-21T20:09:34.769Z,0
2016-05-21T20:10:34.881Z,0
2016-05-21T20:11:35.180Z,0
2016-05-21T20:12:35.871Z,0
2016-05-21T20:13:34.999Z,0
2016-05-21T20:14:35.158Z,0
2016-05-21T20:15:35.130Z,0
2016-05-21T20:16:35.741Z,0
2016-05-21T20:17:49.463Z,0
2016-05-21T20:18:35.325Z,0
2016-05-21T20:19:35.155Z,0
2016-05-21T20:20:36.627Z,0
2016-05-21T20:22:35.023Z,0
2016-05-21T20:23:35.588Z,0
2016-05-21T20:24:35.247Z,0
2016-05-21T20:25:35.485Z,0
2016-05-21T20:26:34.737Z,0
2016-05-21T20:27:49.006Z,0
2016-05-21T20:28:35.258Z,0
2016-05-21T20:29:35.339Z,0
2016-05-21T20:30:34.950Z,0
2016-05-21T20:31:35.219Z,0
2016-05-21T20:32:49.112Z,0
2016-05-21T20:33:35.053Z,0
2016-05-21T20:34:34.992Z,0
2016-05-21T20:35:35.323Z,0
2016-05-21T20:36:35.405Z,0
2016-05-21T20:37:35.328Z,0
2016-05-21T20:38:35.379Z,0
2016-05-21T20:39:35.350Z,0
2016-05-21T20:40:36.650Z,0
2016-05-21T20:41:35.371Z,0
2016-05-21T20:42:35.249Z,0
2016-05-21T20:43:35.361Z,0